Time;durP1;ratioP1;P1;durP2;ratioP2;P2;SDS_P1;SDS_P2;PMS_P1;PMS_P2;Temp;Humidity;BMP_temperature;BMP_pressure;BME280_temperature;BME280_humidity;BME280_pressure;Samples;Min_cycle;Max_cycle;Signal;HPM_P1;HPM_P2
2022/06/06 00:01:51;;;;;;;4.90;3.97;;;16.10;99.90;;;;;;5043605;28;20044;-73
2022/06/06 00:04:19;;;;;;;5.03;3.60;;;16.20;99.90;;;;;;5035697;28;20046;-74
2022/06/06 00:06:45;;;;;;;2.83;2.63;;;16.10;99.90;;;;;;5034571;28;20037;-74
2022/06/06 00:09:14;;;;;;;4.90;3.78;;;16.10;99.90;;;;;;5035473;28;20049;-73
2022/06/06 00:11:40;;;;;;;5.45;4.30;;;16.10;99.90;;;;;;5042090;28;20053;-74
2022/06/06 00:14:08;;;;;;;5.00;3.78;;;16.20;99.90;;;;;;5053399;28;20462;-73
2022/06/06 00:16:35;;;;;;;4.65;3.63;;;16.20;99.90;;;;;;5036401;28;20041;-74
2022/06/06 00:19:03;;;;;;;4.82;4.32;;;16.10;99.90;;;;;;5035094;28;20037;-72
2022/06/06 00:21:30;;;;;;;5.45;4.55;;;16.20;99.90;;;;;;5035485;28;20501;-72
2022/06/06 00:23:59;;;;;;;4.85;4.40;;;16.30;99.90;;;;;;5035257;28;20029;-72
2022/06/06 00:26:28;;;;;;;6.50;5.40;;;16.40;99.90;;;;;;5035205;28;20029;-71
2022/06/06 00:28:55;;;;;;;5.63;4.30;;;16.60;99.90;;;;;;5033752;28;20056;-72
2022/06/06 00:36:55;;;;;;;2.55;2.35;;;16.70;99.90;;;;;;5034668;28;20041;-72
2022/06/06 00:39:21;;;;;;;4.15;3.45;;;16.60;99.90;;;;;;5035249;28;20034;-73
2022/06/06 00:41:50;;;;;;;4.35;3.95;;;16.40;99.90;;;;;;5050802;28;20056;-72
2022/06/06 00:44:22;;;;;;;3.53;2.63;;;16.30;99.90;;;;;;5050813;28;20048;-72
2022/06/06 00:47:25;;;;;;;3.03;2.75;;;16.30;99.90;;;;;;5042946;28;20052;-72
2022/06/06 00:50:05;;;;;;;5.15;3.97;;;16.30;99.90;;;;;;5031994;28;20052;-72
2022/06/06 00:52:37;;;;;;;4.28;3.38;;;16.20;99.90;;;;;;5035955;28;20037;-73
2022/06/06 00:55:09;;;;;;;3.92;2.75;;;16.20;99.90;;;;;;5047305;28;20490;-72
2022/06/06 00:57:43;;;;;;;2.88;2.60;;;16.20;99.90;;;;;;5034964;28;20036;-72
2022/06/06 01:00:13;;;;;;;3.67;3.38;;;16.20;99.90;;;;;;5036375;28;20029;-72
2022/06/06 01:02:42;;;;;;;5.43;4.05;;;16.20;99.90;;;;;;5037972;28;20045;-75
2022/06/06 01:05:09;;;;;;;6.07;3.20;;;16.20;99.90;;;;;;5044425;28;20037;-73
2022/06/06 01:07:36;;;;;;;4.30;3.42;;;16.20;99.90;;;;;;5046138;28;20032;-73
2022/06/06 01:10:04;;;;;;;3.53;3.22;;;16.30;99.90;;;;;;5045945;28;20030;-74
2022/06/06 01:12:32;;;;;;;3.55;3.25;;;16.30;99.90;;;;;;5037740;28;20454;-74
2022/06/06 01:15:05;;;;;;;3.28;2.65;;;16.20;99.90;;;;;;5034325;28;20029;-74
2022/06/06 01:17:43;;;;;;;3.63;3.30;;;16.20;99.90;;;;;;5034480;28;20045;-74
2022/06/06 01:20:36;;;;;;;4.85;4.15;;;16.10;99.90;;;;;;5033485;28;20390;-72
2022/06/06 01:23:21;;;;;;;5.15;4.05;;;16.10;99.90;;;;;;5033793;28;20042;-72
2022/06/06 01:25:54;;;;;;;3.38;3.08;;;16.10;99.90;;;;;;5033810;28;20033;-72
2022/06/06 01:28:48;;;;;;;3.53;3.08;;;16.00;99.90;;;;;;5044124;28;20367;-72
2022/06/06 01:31:25;;;;;;;4.40;4.00;;;15.90;99.90;;;;;;5033897;28;20486;-73
2022/06/06 01:33:56;;;;;;;4.47;4.07;;;15.80;99.90;;;;;;5034344;28;20041;-72
2022/06/06 01:36:27;;;;;;;3.88;3.55;;;15.80;99.90;;;;;;5049571;28;20045;-72
2022/06/06 01:38:54;;;;;;;6.97;4.30;;;15.80;99.90;;;;;;5034028;28;20030;-71
2022/06/06 01:41:34;;;;;;;3.20;3.00;;;15.80;99.90;;;;;;5034260;28;20033;-73
2022/06/06 01:44:22;;;;;;;5.50;3.55;;;15.80;99.90;;;;;;5033433;28;20625;-73
2022/06/06 01:46:48;;;;;;;3.85;3.55;;;15.80;99.90;;;;;;5033369;28;20044;-73
2022/06/06 01:49:16;;;;;;;5.15;3.55;;;15.70;99.90;;;;;;5040423;28;20045;-73
2022/06/06 01:51:42;;;;;;;4.07;3.78;;;15.70;99.90;;;;;;5036354;28;20048;-74
2022/06/06 01:54:13;;;;;;;5.25;4.78;;;15.70;99.90;;;;;;5046471;28;20375;-73
2022/06/06 01:56:40;;;;;;;6.30;4.70;;;15.60;99.90;;;;;;5038200;28;20041;-74
2022/06/06 01:59:06;;;;;;;4.95;4.55;;;15.50;99.90;;;;;;5053601;28;20041;-73
2022/06/06 02:01:32;;;;;;;9.57;4.80;;;15.40;99.90;;;;;;5036374;28;20467;-73
2022/06/06 02:03:58;;;;;;;6.18;4.88;;;15.30;99.90;;;;;;5033103;28;20501;-73
2022/06/06 02:06:25;;;;;;;6.38;5.78;;;15.20;99.90;;;;;;5032985;28;20034;-73
2022/06/06 02:08:52;;;;;;;5.28;4.60;;;15.10;99.90;;;;;;5044263;28;20032;-74
2022/06/06 02:11:19;;;;;;;7.30;6.63;;;15.00;99.90;;;;;;5035612;28;20036;-73
2022/06/06 02:13:45;;;;;;;6.68;5.70;;;14.90;99.90;;;;;;5048893;28;20272;-72
2022/06/06 02:16:12;;;;;;;7.90;6.00;;;14.80;99.90;;;;;;5033728;28;20029;-73
2022/06/06 02:18:38;;;;;;;6.93;6.22;;;14.80;99.90;;;;;;5050853;28;20024;-73
2022/06/06 02:21:04;;;;;;;5.70;5.20;;;14.80;99.90;;;;;;5047706;28;20064;-74
2022/06/06 02:23:31;;;;;;;7.13;5.85;;;14.70;99.90;;;;;;5033027;28;20045;-73
2022/06/06 02:25:57;;;;;;;6.25;5.65;;;14.70;99.90;;;;;;5032410;28;20132;-73
2022/06/06 02:28:25;;;;;;;7.03;6.32;;;14.70;99.90;;;;;;5032792;28;20036;-73
2022/06/06 02:30:51;;;;;;;6.65;6.15;;;14.70;99.90;;;;;;5040564;28;20036;-74
2022/06/06 02:33:17;;;;;;;6.72;6.13;;;14.70;99.90;;;;;;5034488;28;20042;-73
2022/06/06 02:35:44;;;;;;;7.38;6.68;;;14.60;99.90;;;;;;5032593;28;20471;-73
2022/06/06 02:38:12;;;;;;;7.15;6.45;;;14.70;99.90;;;;;;5032920;28;20037;-73
2022/06/06 02:40:41;;;;;;;6.95;6.28;;;14.60;99.90;;;;;;5032687;28;20063;-73
2022/06/06 02:43:07;;;;;;;6.82;6.22;;;14.60;99.90;;;;;;5043109;28;20045;-73
2022/06/06 02:45:33;;;;;;;8.40;7.60;;;14.50;99.90;;;;;;5043810;28;20499;-73
2022/06/06 02:47:59;;;;;;;11.13;7.75;;;14.50;99.90;;;;;;5031206;28;20057;-73
2022/06/06 02:50:31;;;;;;;7.13;6.43;;;14.50;99.90;;;;;;5031646;28;20041;-74
2022/06/06 02:52:58;;;;;;;13.02;7.20;;;14.50;99.90;;;;;;5045137;28;20500;-74
2022/06/06 02:55:25;;;;;;;9.38;7.40;;;14.60;99.90;;;;;;5041885;28;20383;-71
2022/06/06 02:57:52;;;;;;;10.43;7.57;;;14.60;99.90;;;;;;5031159;28;20048;-71
2022/06/06 03:00:23;;;;;;;8.75;7.10;;;14.60;99.90;;;;;;5031514;28;20041;-74
2022/06/06 03:02:49;;;;;;;8.15;7.32;;;14.60;99.90;;;;;;5045228;28;20037;-74
2022/06/06 03:05:16;;;;;;;8.90;8.07;;;14.70;99.90;;;;;;5037582;28;20041;-73
2022/06/06 03:08:05;;;;;;;7.60;6.95;;;14.70;99.90;;;;;;5030863;28;20042;-74
2022/06/06 03:10:51;;;;;;;10.32;8.15;;;14.60;99.90;;;;;;5040648;28;20037;-73
2022/06/06 03:14:00;;;;;;;10.88;8.88;;;14.60;99.90;;;;;;5032403;28;20046;-73
2022/06/06 03:22:36;;;;;;;8.77;7.93;;;14.60;99.90;;;;;;5032232;28;20064;-73
2022/06/06 03:25:30;;;;;;;9.15;7.65;;;14.60;99.90;;;;;;5030972;28;20048;-74
2022/06/06 03:28:27;;;;;;;7.05;6.35;;;14.60;99.90;;;;;;5032109;28;20026;-73
2022/06/06 03:31:17;;;;;;;6.45;5.85;;;14.50;99.90;;;;;;5031690;28;20037;-73
2022/06/06 03:34:00;;;;;;;7.20;6.13;;;14.40;99.90;;;;;;5031979;28;20036;-76
2022/06/06 03:36:38;;;;;;;7.13;6.55;;;14.50;99.90;;;;;;5032331;28;20485;-73
2022/06/06 03:39:05;;;;;;;9.63;7.18;;;14.60;99.90;;;;;;5031027;28;20060;-73
2022/06/06 03:41:40;;;;;;;8.40;7.70;;;14.70;99.90;;;;;;5036663;28;20041;-73
2022/06/06 03:44:27;;;;;;;8.35;7.55;;;14.70;99.90;;;;;;5050896;28;20053;-75
2022/06/06 03:47:31;;;;;;;11.82;8.32;;;14.80;99.90;;;;;;5035574;28;20044;-71
2022/06/06 03:50:25;;;;;;;10.18;8.13;;;14.90;99.90;;;;;;5035817;28;20037;-73
2022/06/06 03:53:07;;;;;;;7.22;6.63;;;15.00;99.90;;;;;;5035868;28;20037;-71
2022/06/06 03:55:50;;;;;;;6.63;6.03;;;15.00;99.90;;;;;;5036163;28;20029;-74
2022/06/06 03:58:17;;;;;;;8.32;6.85;;;15.00;99.90;;;;;;5035684;28;20034;-73
2022/06/06 04:00:45;;;;;;;177.60;20.35;;;15.10;99.90;;;;;;5035843;28;20040;-76
2022/06/06 04:03:14;;;;;;;11.25;10.05;;;15.10;99.90;;;;;;5051283;28;20056;-74
2022/06/06 04:05:40;;;;;;;7.47;6.93;;;15.10;99.90;;;;;;5042871;28;20029;-74
2022/06/06 04:08:10;;;;;;;10.00;9.02;;;15.10;99.90;;;;;;5041272;28;20055;-74
2022/06/06 04:11:04;;;;;;;184.32;108.82;;;15.20;99.90;;;;;;5052778;28;20033;-73
2022/06/06 04:13:44;;;;;;;151.55;22.73;;;15.30;99.90;;;;;;5047177;28;20060;-74
2022/06/06 04:16:22;;;;;;;25.77;23.45;;;15.30;99.90;;;;;;5034419;28;20029;-73
2022/06/06 04:19:14;;;;;;;22.00;20.55;;;15.30;99.90;;;;;;5037763;28;20030;-74
2022/06/06 04:21:58;;;;;;;7.13;6.45;;;15.30;99.90;;;;;;5050804;28;20033;-72
2022/06/06 04:24:41;;;;;;;8.27;7.35;;;15.40;99.90;;;;;;5048984;28;20499;-72
2022/06/06 04:27:20;;;;;;;8.93;7.07;;;15.40;99.90;;;;;;5035093;28;20033;-72
2022/06/06 04:30:17;;;;;;;7.72;7.03;;;15.50;99.90;;;;;;5035363;28;20037;-72
2022/06/06 04:33:02;;;;;;;6.85;6.28;;;15.70;99.90;;;;;;5036469;28;20041;-72
2022/06/06 04:35:34;;;;;;;7.22;6.53;;;15.80;99.90;;;;;;5035062;28;20029;-72
2022/06/06 04:38:26;;;;;;;10.95;7.50;;;15.80;99.90;;;;;;5034964;28;20026;-72
2022/06/06 04:41:17;;;;;;;7.22;6.45;;;15.90;99.90;;;;;;5035022;28;20064;-72
2022/06/06 04:43:47;;;;;;;6.53;6.03;;;16.00;99.90;;;;;;5033724;28;20060;-72
2022/06/06 04:46:55;;;;;;;6.18;5.13;;;16.00;99.90;;;;;;5035029;28;20398;-72
2022/06/06 04:49:22;;;;;;;10.10;5.43;;;16.10;99.90;;;;;;5049143;28;20471;-73
2022/06/06 04:51:50;;;;;;;5.57;5.07;;;16.20;99.90;;;;;;5034458;28;20033;-72
2022/06/06 04:54:19;;;;;;;6.03;5.38;;;16.20;99.90;;;;;;5049518;28;20048;-72
2022/06/06 04:56:46;;;;;;;5.95;5.30;;;16.30;99.90;;;;;;5033553;28;20464;-73
2022/06/06 04:59:14;;;;;;;7.00;4.75;;;16.30;99.90;;;;;;5034592;28;20081;-72
2022/06/06 05:01:41;;;;;;;425.83;51.40;;;16.40;99.90;;;;;;5036739;28;20474;-72
2022/06/06 05:04:08;;;;;;;4.35;3.95;;;16.50;99.90;;;;;;5049100;28;20052;-72
2022/06/06 05:07:01;;;;;;;3.70;3.40;;;16.60;99.90;;;;;;5035475;28;20034;-72
2022/06/06 05:09:53;;;;;;;4.50;4.10;;;16.90;99.90;;;;;;5049809;28;20037;-72
2022/06/06 05:12:34;;;;;;;3.92;3.63;;;17.70;99.90;;;;;;5032959;28;20399;-73
2022/06/06 05:15:23;;;;;;;3.72;2.97;;;18.30;99.90;;;;;;5032905;28;20048;-74
2022/06/06 05:18:02;;;;;;;5.03;3.25;;;18.60;99.90;;;;;;5034081;28;20044;-73
2022/06/06 05:20:46;;;;;;;3.17;2.88;;;19.10;99.90;;;;;;5033059;28;20049;-73
2022/06/06 05:23:21;;;;;;;3.63;3.33;;;19.60;99.90;;;;;;5047033;28;20037;-73
2022/06/06 05:26:09;;;;;;;3.33;2.65;;;20.40;99.90;;;;;;5048769;28;20033;-74
2022/06/06 05:28:54;;;;;;;2.50;2.15;;;20.50;99.90;;;;;;5039413;28;20042;-74
2022/06/06 05:31:32;;;;;;;2.70;2.50;;;20.00;99.90;;;;;;5039881;28;20470;-74
2022/06/06 05:34:07;;;;;;;3.90;3.33;;;20.00;99.90;;;;;;5048672;28;20048;-74
2022/06/06 05:37:00;;;;;;;2.40;2.20;;;20.30;99.90;;;;;;5044824;28;20037;-73
2022/06/06 05:39:40;;;;;;;2.60;2.40;;;21.20;99.90;;;;;;5049861;28;20029;-74
2022/06/06 05:42:44;;;;;;;5.50;3.00;;;21.70;99.90;;;;;;5034657;28;20101;-73
2022/06/06 05:45:35;;;;;;;3.60;1.83;;;22.60;99.90;;;;;;5033678;28;20053;-73
2022/06/06 05:48:07;;;;;;;3.55;3.25;;;22.40;99.90;;;;;;5034072;28;20493;-73
2022/06/06 05:50:42;;;;;;;3.47;2.50;;;22.10;99.60;;;;;;5034838;28;20041;-73
2022/06/06 05:53:11;;;;;;;1.83;1.55;;;21.70;99.90;;;;;;5033142;28;20491;-73
2022/06/06 05:55:50;;;;;;;7.55;2.47;;;21.10;99.90;;;;;;5034464;28;20463;-73
2022/06/06 05:58:34;;;;;;;2.75;2.55;;;20.50;99.90;;;;;;5035222;28;20052;-73
2022/06/06 06:01:21;;;;;;;798.45;197.45;;;20.00;99.90;;;;;;5033994;28;20382;-72
2022/06/06 06:04:00;;;;;;;4.40;2.83;;;19.60;99.90;;;;;;5041227;28;20391;-75
2022/06/06 06:06:33;;;;;;;2.88;2.55;;;19.30;99.90;;;;;;5036151;28;20029;-72
2022/06/06 06:09:28;;;;;;;3.40;2.90;;;19.10;99.90;;;;;;5050706;28;20030;-72
2022/06/06 06:12:03;;;;;;;4.18;2.90;;;18.90;99.90;;;;;;5028182;28;20041;-72
2022/06/06 06:15:07;;;;;;;3.55;3.25;;;18.80;99.90;;;;;;5041053;28;20049;-72
2022/06/06 06:17:37;;;;;;;3.50;2.40;;;18.70;99.90;;;;;;5040578;28;20040;-73
2022/06/06 06:20:09;;;;;;;2.78;2.58;;;18.80;99.90;;;;;;5034216;28;20050;-72
2022/06/06 06:22:49;;;;;;;4.50;2.58;;;18.70;99.90;;;;;;5033670;28;20032;-72
2022/06/06 06:25:18;;;;;;;232.40;42.45;;;18.70;99.90;;;;;;5033074;28;20041;-72
2022/06/06 06:27:46;;;;;;;3.88;2.80;;;18.70;99.90;;;;;;5033741;28;20485;-72
2022/06/06 06:30:14;;;;;;;4.40;3.25;;;18.60;99.90;;;;;;5032381;28;20037;-72
2022/06/06 06:32:46;;;;;;;2.60;2.40;;;18.60;99.90;;;;;;5032704;28;20049;-73
2022/06/06 06:35:27;;;;;;;6.15;2.05;;;18.80;99.90;;;;;;5041099;28;20025;-72
2022/06/06 06:38:11;;;;;;;3.38;3.08;;;19.10;99.90;;;;;;5051920;28;20056;-74
2022/06/06 06:41:03;;;;;;;2.60;1.98;;;19.60;99.90;;;;;;5036766;28;20025;-73
2022/06/06 06:43:38;;;;;;;2.20;2.00;;;20.10;99.90;;;;;;5052217;28;20490;-73
2022/06/06 06:46:13;;;;;;;2.40;2.20;;;20.20;99.90;;;;;;5049027;28;20040;-72
2022/06/06 06:48:45;;;;;;;247.88;26.83;;;20.20;99.90;;;;;;5032848;28;20403;-72
2022/06/06 06:51:30;;;;;;;2.33;2.13;;;20.50;99.90;;;;;;5032461;28;20045;-72
2022/06/06 06:54:14;;;;;;;2.60;2.40;;;20.80;99.90;;;;;;5047776;28;20050;-73
2022/06/06 06:57:07;;;;;;;2.65;2.42;;;21.00;99.90;;;;;;5044762;28;20040;-72
2022/06/06 07:00:04;;;;;;;2.92;2.05;;;21.10;99.90;;;;;;5039797;28;20044;-72
2022/06/06 07:08:43;;;;;;;2.80;1.92;;;21.20;99.90;;;;;;5049680;28;21558;-72
2022/06/06 07:11:09;;;;;;;4.35;2.47;;;21.40;99.90;;;;;;5038682;28;20240;-72
2022/06/06 07:14:07;;;;;;;2.75;2.38;;;21.40;99.90;;;;;;5032482;28;20049;-73
2022/06/06 07:16:36;;;;;;;3.60;1.95;;;21.80;99.70;;;;;;5031472;28;20041;-73
2022/06/06 07:19:08;;;;;;;2.90;1.83;;;22.40;99.50;;;;;;5032565;28;20044;-73
2022/06/06 07:21:36;;;;;;;2.63;2.20;;;22.30;98.10;;;;;;5033138;28;20037;-73
2022/06/06 07:24:07;;;;;;;2.42;1.95;;;21.80;98.40;;;;;;5032241;28;20049;-74
2022/06/06 07:26:38;;;;;;;4.00;2.58;;;21.50;98.60;;;;;;5032478;28;20041;-72
2022/06/06 07:29:06;;;;;;;2.78;2.35;;;20.90;99.90;;;;;;5032443;28;20517;-73
2022/06/06 07:31:57;;;;;;;3.13;2.22;;;20.70;99.90;;;;;;5047581;28;20029;-73
2022/06/06 07:34:47;;;;;;;3.65;2.88;;;20.40;99.90;;;;;;5032504;28;20410;-72
2022/06/06 07:37:26;;;;;;;3.78;2.60;;;20.30;99.90;;;;;;5031694;28;20030;-73
2022/06/06 07:40:03;;;;;;;3.42;2.25;;;20.50;99.90;;;;;;5031707;28;20033;-73
2022/06/06 07:42:29;;;;;;;2.88;2.42;;;21.10;99.90;;;;;;5032118;28;20036;-72
2022/06/06 07:45:34;;;;;;;2.70;2.20;;;21.10;99.90;;;;;;5031974;28;20048;-73
2022/06/06 07:48:32;;;;;;;2.30;2.10;;;20.70;99.90;;;;;;5028488;28;20483;-72
2022/06/06 07:51:36;;;;;;;2.20;2.00;;;20.40;99.90;;;;;;5038072;28;20382;-72
2022/06/06 07:54:17;;;;;;;2.63;2.05;;;20.90;99.90;;;;;;5031678;28;20467;-73
2022/06/06 07:56:52;;;;;;;3.45;2.67;;;20.80;99.90;;;;;;5032223;28;20033;-74
2022/06/06 07:59:31;;;;;;;42.55;8.18;;;21.20;99.90;;;;;;5041781;28;20029;-72
2022/06/06 08:02:19;;;;;;;2.83;1.95;;;21.80;99.00;;;;;;5031244;28;20038;-72
2022/06/06 08:05:14;;;;;;;5.85;1.92;;;21.60;99.00;;;;;;5031807;28;20497;-72
2022/06/06 08:08:14;;;;;;;2.70;2.42;;;21.50;99.40;;;;;;5033507;28;20046;-72
2022/06/06 08:10:43;;;;;;;2.00;1.67;;;22.20;97.90;;;;;;5031643;28;20052;-72
2022/06/06 08:13:30;;;;;;;1.95;1.60;;;22.40;95.80;;;;;;5031674;28;20324;-72
2022/06/06 08:16:14;;;;;;;2.83;2.25;;;23.40;94.30;;;;;;5031658;28;20053;-73
2022/06/06 08:18:59;;;;;;;2.25;2.03;;;24.30;91.60;;;;;;5031757;28;20498;-73
2022/06/06 08:21:35;;;;;;;4.22;1.83;;;24.80;90.10;;;;;;5031614;28;20026;-73
2022/06/06 08:24:08;;;;;;;3.33;1.80;;;24.90;86.70;;;;;;5031344;28;20044;-73
2022/06/06 08:26:37;;;;;;;2.35;1.83;;;24.40;90.10;;;;;;5033000;28;20033;-72
2022/06/06 08:29:08;;;;;;;22.83;2.13;;;23.60;91.80;;;;;;5034516;28;20040;-73
2022/06/06 08:31:34;;;;;;;2.90;1.45;;;23.00;92.80;;;;;;5034058;28;20030;-72
2022/06/06 08:34:01;;;;;;;2.30;1.60;;;23.20;93.60;;;;;;5033924;28;20414;-73
2022/06/06 08:37:00;;;;;;;3.38;2.00;;;23.50;92.80;;;;;;5046334;28;20049;-72
2022/06/06 08:39:38;;;;;;;1.93;1.43;;;23.40;91.30;;;;;;5041329;28;20037;-72
2022/06/06 08:42:18;;;;;;;1.83;1.17;;;23.40;90.50;;;;;;5041538;28;20295;-72
2022/06/06 08:45:12;;;;;;;2.20;1.50;;;22.70;90.90;;;;;;5036150;28;20038;-72
2022/06/06 08:48:02;;;;;;;2.45;1.42;;;22.30;91.50;;;;;;5046437;28;20041;-72
2022/06/06 08:50:56;;;;;;;2.42;2.22;;;22.00;94.80;;;;;;5058886;28;20049;-73
2022/06/06 08:53:53;;;;;;;1.75;1.15;;;22.10;92.20;;;;;;5050572;28;20051;-72
2022/06/06 08:56:47;;;;;;;1.17;1.05;;;23.10;88.50;;;;;;5034854;28;20498;-73
2022/06/06 08:59:53;;;;;;;1.92;1.20;;;24.20;84.30;;;;;;5034432;28;20413;-73
2022/06/06 09:02:54;;;;;;;1.15;1.05;;;24.50;79.70;;;;;;5035171;28;20052;-73
2022/06/06 09:05:23;;;;;;;2.22;1.35;;;24.00;78.50;;;;;;5044930;28;20348;-73
2022/06/06 09:07:55;;;;;;;1.48;1.27;;;23.70;75.70;;;;;;5041427;28;20038;-73
2022/06/06 09:10:44;;;;;;;1.52;1.42;;;23.50;82.30;;;;;;5034529;28;20025;-73
2022/06/06 09:13:19;;;;;;;1.77;1.23;;;24.10;78.10;;;;;;5034394;28;20053;-73
2022/06/06 09:16:19;;;;;;;2.13;1.55;;;24.80;74.30;;;;;;5034421;28;20033;-74
2022/06/06 09:19:08;;;;;;;1.95;1.40;;;25.70;72.00;;;;;;5034527;28;20025;-73
2022/06/06 09:22:18;;;;;;;8.23;7.70;;;26.10;68.20;;;;;;5037190;28;20482;-74
2022/06/06 09:24:50;;;;;;;;;;;25.50;68.30;;;;;;5034985;28;20045;-73
2022/06/06 09:27:53;;;;;;;1.50;1.05;;;25.00;69.60;;;;;;5034044;28;19916;-73
2022/06/06 09:30:31;;;;;;;63.97;13.60;;;24.30;69.50;;;;;;5048753;28;20391;-73
2022/06/06 09:33:12;;;;;;;1.83;1.23;;;24.30;70.10;;;;;;5033959;28;20411;-74
2022/06/06 09:36:17;;;;;;;94.35;33.63;;;23.90;71.80;;;;;;5053654;28;20040;-74
2022/06/06 09:38:51;;;;;;;0.80;0.63;;;24.10;73.80;;;;;;5025601;28;20057;-73
2022/06/06 09:41:48;;;;;;;1.58;1.10;;;25.30;68.20;;;;;;5042834;28;20036;-71
2022/06/06 09:44:21;;;;;;;1.42;1.20;;;25.50;66.50;;;;;;5042051;28;20050;-71
2022/06/06 09:47:18;;;;;;;238.98;171.75;;;25.00;68.10;;;;;;5038291;28;20025;-71
2022/06/06 09:50:11;;;;;;;2.25;1.20;;;26.00;66.00;;;;;;5038605;28;20041;-72
2022/06/06 09:53:14;;;;;;;1.80;1.42;;;26.70;62.20;;;;;;5041886;28;20030;-72
2022/06/06 09:59:48;;;;;;;1.73;1.20;;;26.10;64.30;;;;;;5030600;28;20399;-71
2022/06/06 10:02:56;;;;;;;1999.90;999.90;;;25.50;63.50;;;;;;5036434;28;20248;-73
2022/06/06 10:05:58;;;;;;;1999.90;999.90;;;25.40;63.30;;;;;;5058573;28;20041;-73
2022/06/06 10:08:27;;;;;;;1999.90;999.90;;;26.00;63.60;;;;;;5048351;28;20474;-73
2022/06/06 10:11:37;;;;;;;1.50;1.20;;;25.10;64.50;;;;;;5033780;28;20029;-73
2022/06/06 10:14:15;;;;;;;1.65;1.33;;;24.80;64.60;;;;;;5031901;28;20495;-73
2022/06/06 10:17:09;;;;;;;8.88;1.02;;;24.30;65.70;;;;;;5047073;28;20055;-73
2022/06/06 10:20:04;;;;;;;1.90;0.93;;;24.20;66.30;;;;;;5033340;28;20034;-73
2022/06/06 10:22:48;;;;;;;2.05;1.27;;;24.30;67.10;;;;;;5033561;28;20034;-74
2022/06/06 10:25:26;;;;;;;1.38;1.13;;;24.30;65.90;;;;;;5032594;28;20048;-73
2022/06/06 10:28:11;;;;;;;1.33;1.00;;;24.20;65.70;;;;;;5032206;28;20052;-73
2022/06/06 10:30:46;;;;;;;1.98;0.93;;;23.90;66.60;;;;;;5033385;28;20038;-73
2022/06/06 10:33:43;;;;;;;147.95;20.92;;;23.90;67.80;;;;;;5037865;28;20029;-73
2022/06/06 10:36:24;;;;;;;2.95;1.17;;;24.10;65.90;;;;;;5040496;28;20040;-73
2022/06/06 10:38:56;;;;;;;1.65;1.00;;;23.80;66.70;;;;;;5033408;28;20037;-74
2022/06/06 10:41:46;;;;;;;1.42;1.23;;;23.90;66.90;;;;;;5033529;28;20383;-73
2022/06/06 10:44:47;;;;;;;2.83;1.37;;;23.70;66.90;;;;;;5032517;28;20380;-73
2022/06/06 10:47:13;;;;;;;5.07;1.00;;;23.60;68.10;;;;;;5034045;28;20072;-73
2022/06/06 10:49:54;;;;;;;11.40;7.25;;;23.30;68.20;;;;;;5050734;28;20041;-73
2022/06/06 10:53:08;;;;;;;1.60;0.90;;;23.30;67.70;;;;;;5032956;28;20041;-73
2022/06/06 10:55:56;;;;;;;1.88;1.67;;;23.30;68.40;;;;;;5032372;28;20576;-73
2022/06/06 10:58:35;;;;;;;0.93;0.65;;;23.10;66.40;;;;;;5033018;28;20479;-73
2022/06/06 11:01:25;;;;;;;1.60;1.15;;;22.70;68.50;;;;;;5032851;28;20048;-73
2022/06/06 11:04:32;;;;;;;1.27;1.17;;;22.70;69.20;;;;;;5032394;28;20052;-73
2022/06/06 11:07:38;;;;;;;1.15;1.02;;;22.50;69.40;;;;;;5033859;28;20041;-73
2022/06/06 11:10:37;;;;;;;1.45;1.08;;;22.30;71.10;;;;;;5032028;28;20037;-73
2022/06/06 11:13:30;;;;;;;0.98;0.88;;;22.00;71.40;;;;;;5032232;28;20395;-73
2022/06/06 11:16:31;;;;;;;1.52;0.90;;;22.20;71.90;;;;;;5033036;28;20033;-74
2022/06/06 11:19:37;;;;;;;1.80;0.88;;;22.50;72.30;;;;;;5046786;28;20028;-74
2022/06/06 11:22:20;;;;;;;1.05;0.93;;;23.00;69.70;;;;;;5031337;28;20052;-74
2022/06/06 11:25:09;;;;;;;0.65;0.40;;;23.50;65.50;;;;;;5032173;28;20045;-71
2022/06/06 11:27:57;;;;;;;0.60;0.60;;;23.50;63.00;;;;;;5031169;28;20048;-71
2022/06/06 11:31:00;;;;;;;1.58;0.70;;;23.10;63.60;;;;;;5033169;28;20041;-72
2022/06/06 11:34:03;;;;;;;1.45;0.63;;;23.20;61.60;;;;;;5048418;28;20459;-72
2022/06/06 11:37:02;;;;;;;1.48;0.70;;;23.10;63.70;;;;;;5032062;28;20030;-70
2022/06/06 11:39:47;;;;;;;1.65;0.90;;;23.10;62.20;;;;;;5032428;28;20029;-71
2022/06/06 11:42:25;;;;;;;1.77;0.68;;;23.00;61.90;;;;;;5041515;28;20036;-71
2022/06/06 11:45:23;;;;;;;1.40;0.63;;;22.80;64.70;;;;;;5045097;28;20042;-73
2022/06/06 11:48:01;;;;;;;2.53;0.98;;;22.80;64.70;;;;;;5032582;28;20056;-71
2022/06/06 11:50:55;;;;;;;2.28;0.90;;;23.20;64.20;;;;;;5035992;28;20025;-71
2022/06/06 11:53:27;;;;;;;1.98;0.80;;;23.10;65.80;;;;;;5042058;28;20033;-71
2022/06/06 11:56:00;;;;;;;3.53;1.17;;;23.20;63.70;;;;;;5032632;28;20052;-71
2022/06/06 11:58:51;;;;;;;1.83;1.10;;;23.30;64.30;;;;;;5032059;28;20029;-71
2022/06/06 12:01:42;;;;;;;2.10;0.90;;;23.50;64.00;;;;;;5032731;28;20383;-71
2022/06/06 12:04:33;;;;;;;2.65;1.00;;;23.80;63.20;;;;;;5048952;28;20040;-72
2022/06/06 12:07:02;;;;;;;2.90;1.02;;;23.90;62.20;;;;;;5035353;28;20040;-72
2022/06/06 12:09:46;;;;;;;1.30;0.70;;;23.70;63.60;;;;;;5036063;28;20036;-71
2022/06/06 12:12:30;;;;;;;2.05;0.77;;;23.50;63.20;;;;;;5044500;28;20045;-71
2022/06/06 12:15:26;;;;;;;3.58;0.90;;;23.20;62.10;;;;;;5040804;28;20033;-71
2022/06/06 12:18:30;;;;;;;1.38;0.70;;;23.30;62.60;;;;;;5051035;28;20037;-71
2022/06/06 12:21:24;;;;;;;1.25;0.70;;;23.40;61.80;;;;;;5040517;28;20024;-72
2022/06/06 12:24:06;;;;;;;1.58;0.70;;;23.60;62.30;;;;;;5035592;28;20041;-72
2022/06/06 12:26:32;;;;;;;4.88;0.77;;;23.80;61.80;;;;;;5035059;28;20471;-71
2022/06/06 12:29:35;;;;;;;2.85;0.68;;;23.60;62.20;;;;;;5043371;28;20036;-73
2022/06/06 12:32:04;;;;;;;2.47;0.70;;;23.70;61.50;;;;;;5036563;28;20043;-72
2022/06/06 12:34:53;;;;;;;1.83;1.00;;;24.00;61.30;;;;;;5048883;28;20037;-71
2022/06/06 12:37:30;;;;;;;1.85;0.80;;;24.20;62.20;;;;;;5033806;28;20029;-72
2022/06/06 12:40:03;;;;;;;3.53;0.95;;;24.10;61.50;;;;;;5035124;28;20025;-71
2022/06/06 12:42:52;;;;;;;2.78;0.98;;;24.20;63.60;;;;;;5035229;28;20042;-71
2022/06/06 12:45:51;;;;;;;3.03;0.73;;;24.10;60.20;;;;;;5034941;28;20538;-71
2022/06/06 12:48:42;;;;;;;1.83;0.52;;;23.70;60.10;;;;;;5034214;28;20046;-72
2022/06/06 12:51:20;;;;;;;1.75;0.70;;;23.70;59.40;;;;;;5034828;28;20463;-71
2022/06/06 12:54:14;;;;;;;3.10;0.80;;;23.70;61.00;;;;;;5034223;28;20112;-71
2022/06/06 12:57:03;;;;;;;2.75;1.00;;;23.70;60.60;;;;;;5034099;28;20041;-71
2022/06/06 12:59:36;;;;;;;2.90;0.80;;;24.10;59.80;;;;;;5034954;28;20033;-71
2022/06/06 13:02:22;;;;;;;3.90;0.75;;;24.10;59.40;;;;;;5034805;28;20040;-72
2022/06/06 13:04:54;;;;;;;1.70;0.73;;;24.60;58.50;;;;;;5035012;28;20042;-72
2022/06/06 13:07:53;;;;;;;3.28;0.73;;;25.00;57.20;;;;;;5034631;28;20029;-72
2022/06/06 13:10:43;;;;;;;2.67;0.80;;;25.20;56.10;;;;;;5034655;28;20056;-72
2022/06/06 13:13:12;;;;;;;3.28;0.90;;;25.20;55.60;;;;;;5034093;28;20053;-72
2022/06/06 13:16:04;;;;;;;1.77;0.63;;;25.20;54.20;;;;;;5034795;28;20044;-72
2022/06/06 13:18:33;;;;;;;1.83;0.65;;;25.20;54.20;;;;;;5034273;28;20044;-72
2022/06/06 13:21:17;;;;;;;2.13;0.73;;;25.00;53.50;;;;;;5033849;28;20037;-74
2022/06/06 13:24:17;;;;;;;2.15;0.77;;;24.80;54.20;;;;;;5041819;28;20378;-73
2022/06/06 13:26:50;;;;;;;1.75;0.75;;;24.80;55.50;;;;;;5034160;28;20033;-72
2022/06/06 13:29:31;;;;;;;6.00;1.27;;;25.20;54.80;;;;;;5052386;28;20036;-72
2022/06/06 13:32:30;;;;;;;0.85;0.50;;;25.50;55.70;;;;;;5034564;28;20033;-72
2022/06/06 13:35:25;;;;;;;1.65;1.02;;;25.50;55.60;;;;;;5024935;28;20044;-73
2022/06/06 13:38:03;;;;;;;1.30;0.93;;;25.50;55.80;;;;;;5041178;28;20040;-71
2022/06/06 13:40:49;;;;;;;1.33;0.70;;;25.40;55.90;;;;;;5037592;28;20033;-72
2022/06/06 13:43:29;;;;;;;3.78;1.00;;;24.70;57.00;;;;;;5034363;28;20045;-73
2022/06/06 13:46:15;;;;;;;1.20;0.70;;;24.50;56.50;;;;;;5047767;28;20033;-73
2022/06/06 13:49:03;;;;;;;3.25;0.80;;;24.50;56.60;;;;;;5034198;28;20382;-73
2022/06/06 13:51:48;;;;;;;1.08;0.77;;;24.60;57.70;;;;;;5033999;28;20025;-73
2022/06/06 13:54:36;;;;;;;2.67;1.20;;;24.50;57.20;;;;;;5048335;28;20045;-73
2022/06/06 13:57:18;;;;;;;8.23;1.10;;;24.40;58.40;;;;;;5033432;28;20029;-73
2022/06/06 14:00:12;;;;;;;1.40;0.88;;;24.30;57.60;;;;;;5036623;28;20029;-73
2022/06/06 14:03:06;;;;;;;1.90;0.80;;;24.50;57.60;;;;;;5038594;28;20037;-73
2022/06/06 14:05:57;;;;;;;2.00;0.70;;;24.60;57.00;;;;;;5040083;28;20045;-73
2022/06/06 14:08:24;;;;;;;3.33;1.88;;;24.90;55.00;;;;;;5042004;28;20029;-73
2022/06/06 14:10:53;;;;;;;2.78;1.15;;;24.70;55.20;;;;;;5040997;28;20049;-73
2022/06/06 14:13:44;;;;;;;2.67;0.80;;;24.60;56.70;;;;;;5050931;28;20609;-73
2022/06/06 14:16:23;;;;;;;1.55;0.70;;;24.10;57.30;;;;;;5037625;28;20037;-74
2022/06/06 14:18:54;;;;;;;1.75;0.85;;;24.10;56.10;;;;;;5034883;28;20036;-72